createdAt,value
2022-10-29T00:08:51.771Z,89.08
2022-10-29T00:14:11.267Z,89.2
2022-10-29T00:19:30.461Z,89.69
2022-10-29T00:24:49.717Z,92.34
2022-10-29T00:30:07.605Z,92.4
2022-10-29T00:35:26.816Z,91.23
2022-10-29T00:40:46.545Z,90.55
2022-10-29T00:46:05.892Z,90.71
2022-10-29T00:51:26.016Z,91.02
2022-10-29T00:56:44.265Z,91.57
2022-10-29T01:02:11.736Z,93.01
2022-10-29T01:07:23.554Z,93.09
2022-10-29T01:12:41.642Z,94.19
2022-10-29T01:18:11.264Z,93.4
2022-10-29T01:23:20.627Z,93.88
2022-10-29T01:28:40.149Z,94.91
2022-10-29T01:33:59.801Z,94.64
2022-10-29T01:39:19.075Z,95.12
2022-10-29T01:44:37.690Z,95.73
2022-10-29T01:49:56.402Z,96.07
2022-10-29T01:55:15.283Z,95.53
2022-10-29T02:00:34.812Z,94.3
2022-10-29T02:05:55.126Z,93.51
2022-10-29T02:11:13.232Z,93.45
2022-10-29T02:16:32.481Z,93.34
2022-10-29T02:22:00.525Z,93.77
2022-10-29T02:27:11.468Z,94.49
2022-10-29T02:33:45.613Z,95.22
2022-10-29T02:37:50.239Z,95.75
2022-10-29T02:43:09.932Z,96.64
2022-10-29T02:48:29.115Z,95.06
2022-10-29T02:53:55.285Z,94.38
2022-10-29T02:59:09.135Z,92.51
2022-10-29T03:04:26.432Z,92.63
2022-10-29T03:09:44.530Z,93.91
2022-10-29T03:15:04.112Z,95.83
2022-10-29T03:20:23.279Z,96.82
2022-10-29T03:25:43.055Z,97.26
2022-10-29T03:31:01.800Z,97.37
2022-10-29T03:36:20.765Z,97.45
2022-10-29T03:41:40.586Z,97.61
2022-10-29T03:47:00.156Z,97.82
2022-10-29T03:52:18.803Z,98.44
2022-10-29T03:57:37.916Z,98.22
2022-10-29T04:02:57.129Z,98.3
2022-10-29T04:08:15.965Z,98.44
2022-10-29T04:13:35.179Z,98.51
2022-10-29T04:18:54.784Z,98.69
2022-10-29T04:29:33.882Z,99.08
2022-10-29T04:34:52.547Z,99.17
2022-10-29T04:40:11.917Z,99.26
2022-10-29T04:45:31.402Z,99.41
2022-10-29T04:50:50.661Z,98.98
2022-10-29T04:56:11.050Z,98.73
2022-10-29T05:01:30.198Z,98.63
2022-10-29T05:06:48.172Z,98.54
2022-10-29T05:12:07.653Z,98.61
2022-10-29T05:18:41.796Z,98.71
2022-10-29T05:22:58.323Z,98.67
2022-10-29T05:28:05.822Z,98.66
2022-10-29T05:35:04.370Z,98.83
2022-10-29T05:38:45.285Z,98.93
2022-10-29T05:44:04.556Z,99.01
2022-10-29T05:49:23.848Z,99.08
2022-10-29T05:54:42.737Z,98.86
2022-10-29T05:59:59.636Z,98.61
2022-10-29T06:05:18.920Z,98.32
2022-10-29T06:10:38.044Z,98.11
2022-10-29T06:15:57.366Z,98.66
2022-10-29T06:21:16.487Z,99.03
2022-10-29T06:26:36.207Z,99.3
2022-10-29T06:31:54.944Z,99.52
2022-10-29T06:37:14.752Z,99.61
2022-10-29T06:42:33.143Z,99.37
2022-10-29T06:47:53.490Z,99.53
2022-10-29T06:53:12.887Z,99.2
2022-10-29T06:58:31.913Z,98.72
2022-10-29T07:03:50.635Z,98.13
2022-10-29T07:09:09.354Z,97.54
2022-10-29T07:14:29.571Z,96.49
2022-10-29T07:19:48.823Z,95.43
2022-10-29T07:25:07.415Z,94.91
2022-10-29T07:30:27.683Z,94.24
2022-10-29T07:35:47.073Z,92.8
2022-10-29T07:41:06.505Z,91.07
2022-10-29T07:46:25.603Z,90.49
2022-10-29T07:51:44.850Z,90.11
2022-10-29T07:58:18.949Z,90.61
2022-10-29T08:02:23.896Z,91.13
2022-10-29T08:07:43.600Z,90.42
2022-10-29T08:13:02.959Z,90.42
2022-10-29T08:18:20.919Z,91.07
2022-10-29T08:23:39.633Z,90.65
2022-10-29T08:28:59.198Z,87.11
2022-10-29T08:34:17.903Z,82.79
2022-10-29T08:39:36.731Z,81.69
2022-10-29T08:44:56.057Z,79.29
2022-10-29T08:51:30.200Z,77.67
2022-10-29T08:55:36.121Z,75.87
2022-10-29T09:00:54.972Z,75.08
2022-10-29T09:06:14.623Z,71.49
2022-10-29T09:11:34.082Z,72.67
2022-10-29T09:16:51.642Z,72.41
2022-10-29T09:22:10.750Z,74
2022-10-29T09:27:29.907Z,76.25
2022-10-29T09:32:49.148Z,75.82
2022-10-29T09:38:08.118Z,75.76
2022-10-29T09:43:28.382Z,75.75
2022-10-29T09:48:48.076Z,73.68
2022-10-29T09:54:07.261Z,72.44
2022-10-29T09:59:26.269Z,70.19
2022-10-29T10:04:44.989Z,67.47
2022-10-29T10:10:04.039Z,66.87
2022-10-29T10:15:22.832Z,63.5
2022-10-29T10:21:56.988Z,64.3
2022-10-29T10:26:04.232Z,64.53
2022-10-29T10:31:22.247Z,63.97
2022-10-29T10:36:40.464Z,62.45
2022-10-29T10:41:59.591Z,61.2
2022-10-29T10:47:18.316Z,62.51
2022-10-29T10:53:52.510Z,60.4
2022-10-29T10:57:57.377Z,60.92
2022-10-29T11:06:30.453Z,60.03
2022-10-29T11:13:54.165Z,55.17
2022-10-29T11:19:13.758Z,61.3
2022-10-29T11:24:33.103Z,54.26
2022-10-29T11:29:52.616Z,51.66
2022-10-29T11:35:12.018Z,61.46
2022-10-29T11:40:30.774Z,63.28
2022-10-29T11:45:49.972Z,62.48
2022-10-29T11:51:09.558Z,62.62
2022-10-29T11:56:29.046Z,62.07
2022-10-29T12:01:47.848Z,59.45
2022-10-29T12:07:06.780Z,61.92
2022-10-29T12:12:26.118Z,61.05
2022-10-29T12:17:45.150Z,57.88
2022-10-29T12:23:06.042Z,51.49
2022-10-29T12:28:23.602Z,50.4
2022-10-29T12:33:42.525Z,46.07
2022-10-29T12:39:01.667Z,42.92
2022-10-29T12:44:21.151Z,41.94
2022-10-29T12:49:40.097Z,41.66
2022-10-29T12:54:58.784Z,42.82
2022-10-29T13:00:17.842Z,39.36
2022-10-29T13:05:37.310Z,39.48
2022-10-29T13:10:56.224Z,41.48
2022-10-29T13:16:16.149Z,43.18
2022-10-29T13:21:35.080Z,45.3
2022-10-29T13:26:53.878Z,48.08
2022-10-29T13:32:12.576Z,49.12
2022-10-29T13:37:31.716Z,47.03
2022-10-29T13:42:50.816Z,49.81
2022-10-29T13:48:09.999Z,53.42
2022-10-29T13:53:29.431Z,60.31
2022-10-29T13:58:48.107Z,60.24
2022-10-29T14:04:07.351Z,59.12
2022-10-29T14:09:26.644Z,56.6
2022-10-29T14:14:45.447Z,59.51
2022-10-29T14:20:04.732Z,62.61
2022-10-29T14:25:23.676Z,62.3
2022-10-29T14:30:43.706Z,65.22
2022-10-29T14:36:02.959Z,65.33
2022-10-29T14:41:22.608Z,64.3
2022-10-29T14:46:41.771Z,64.08
2022-10-29T14:52:00.661Z,64.82
2022-10-29T14:52:25.587Z,64.62
2022-10-29T14:57:44.535Z,64.91
2022-10-29T15:03:03.775Z,64.08
2022-10-29T15:08:22.140Z,64.29
2022-10-29T15:13:42.163Z,65.79
2022-10-29T15:19:00.926Z,67.25
2022-10-29T15:24:21.050Z,67.9
2022-10-29T15:29:43.000Z,69.81
2022-10-29T15:34:58.927Z,70.42
2022-10-29T15:40:19.351Z,71.42
2022-10-29T15:45:38.743Z,72.01
2022-10-29T15:50:58.196Z,73.56
2022-10-29T15:57:32.333Z,74.28
2022-10-29T16:01:36.623Z,74.76
2022-10-29T16:06:55.691Z,76.49
2022-10-29T16:12:14.822Z,76.93
2022-10-29T16:17:32.987Z,78.33
2022-10-29T16:22:52.392Z,79.62
2022-10-29T16:28:12.059Z,80.26
2022-10-29T16:33:31.369Z,81.17
2022-10-29T16:38:51.027Z,82.53
2022-10-29T16:44:10.177Z,84.19
2022-10-29T16:49:29.484Z,84.73
2022-10-29T16:54:49.128Z,85.12
2022-10-29T17:00:07.470Z,85.51
2022-10-29T17:05:27.185Z,85.08
2022-10-29T17:10:46.757Z,84.93
2022-10-29T17:16:05.860Z,85.5
2022-10-29T17:21:24.773Z,87.35
2022-10-29T17:26:52.048Z,88
2022-10-29T17:37:22.199Z,89.23
2022-10-29T17:42:41.187Z,90.2
2022-10-29T17:48:00.663Z,90.69
2022-10-29T17:53:19.543Z,91.23
2022-10-29T17:58:38.758Z,91.22
2022-10-29T18:03:57.796Z,91.71
2022-10-29T18:09:18.543Z,91.59
2022-10-29T18:14:35.342Z,92.36
2022-10-29T18:19:54.094Z,93.17
2022-10-29T18:25:13.522Z,93.8
2022-10-29T18:30:32.495Z,94.1
2022-10-29T18:35:51.327Z,94.6
2022-10-29T18:41:11.487Z,95.03
2022-10-29T18:46:30.515Z,95.41
2022-10-29T18:51:48.729Z,95.48
2022-10-29T18:57:07.904Z,96.19
2022-10-29T19:02:27.569Z,96.6
2022-10-29T19:07:47.789Z,96.86
2022-10-29T19:13:06.624Z,96.91
2022-10-29T19:18:26.196Z,97.25
2022-10-29T19:23:45.806Z,97.48
2022-10-29T19:29:04.526Z,97.58
2022-10-29T19:34:24.215Z,97.87
2022-10-29T19:39:43.097Z,98.01
2022-10-29T19:45:02.607Z,98.17
2022-10-29T19:50:21.528Z,98.25
2022-10-29T19:56:55.728Z,98.06
2022-10-29T20:01:00.890Z,97.88
2022-10-29T20:06:20.549Z,97.94
2022-10-29T20:11:39.396Z,98.12
2022-10-29T20:16:59.068Z,98.36
2022-10-29T20:22:18.018Z,98.59
2022-10-29T20:27:37.299Z,98.65
2022-10-29T20:36:10.389Z,98.82
2022-10-29T20:38:16.060Z,99.08
2022-10-29T20:43:35.824Z,99.14
2022-10-29T20:48:54.843Z,99.16
2022-10-29T20:54:13.733Z,99.23
2022-10-29T20:59:33.291Z,99.22
2022-10-29T21:04:52.367Z,99.22
2022-10-29T21:10:11.642Z,99.33
2022-10-29T21:15:30.976Z,99.38
2022-10-29T21:20:50.509Z,99.53
2022-10-29T21:26:09.123Z,99.6
2022-10-29T21:31:27.944Z,99.62
2022-10-29T21:38:02.140Z,99.61
2022-10-29T21:42:18.616Z,99.64
2022-10-29T21:47:27.091Z,99.73
2022-10-29T21:52:46.057Z,99.81
2022-10-29T21:58:04.326Z,99.84
2022-10-29T22:03:23.611Z,99.9
2022-10-29T22:08:43.164Z,99.99
2022-10-29T22:15:17.338Z,99.99
2022-10-29T22:19:33.896Z,99.99
2022-10-29T22:24:40.776Z,99.99
2022-10-29T22:29:59.976Z,99.99
2022-10-29T22:35:19.318Z,99.99
2022-10-29T22:40:38.508Z,99.92
2022-10-29T22:45:57.930Z,99.99
2022-10-29T22:51:17.146Z,99.99
2022-10-29T22:56:36.154Z,99.99
2022-10-29T23:01:55.614Z,99.99
2022-10-29T23:07:14.804Z,99.99
2022-10-29T23:12:33.579Z,99.99
2022-10-29T23:17:52.987Z,99.99
2022-10-29T23:23:12.435Z,99.99
2022-10-29T23:28:31.582Z,99.99
2022-10-29T23:33:50.446Z,99.99
2022-10-29T23:39:09.981Z,99.99
2022-10-29T23:44:28.710Z,99.99
2022-10-29T23:49:47.963Z,99.99
2022-10-29T23:55:07.017Z,99.99
